Time;durP1;ratioP1;P1;durP2;ratioP2;P2;SDS_P1;SDS_P2;PMS_P1;PMS_P2;Temp;Humidity;BMP_temperature;BMP_pressure;BME280_temperature;BME280_humidity;BME280_pressure;Samples;Min_cycle;Max_cycle;Signal;HPM_P1;HPM_P2
2022/03/21 00:00:25;;;;;;;23.80;13.82;;;6.00;59.80;;;4.96;50.67;98617.06;5012728;28;20488;-72
2022/03/21 00:02:51;;;;;;;20.25;12.60;;;6.00;60.60;;;4.80;50.84;98607.59;5013474;28;20405;-72
2022/03/21 00:05:18;;;;;;;22.65;13.63;;;6.00;59.70;;;4.87;50.66;98608.47;5013410;28;20405;-72
2022/03/21 00:07:45;;;;;;;24.30;13.77;;;6.10;59.80;;;4.95;50.32;98597.88;5012047;28;20408;-72
2022/03/21 00:10:11;;;;;;;23.75;14.15;;;6.10;59.50;;;4.87;50.75;98595.34;5012817;28;20408;-72
2022/03/21 00:12:39;;;;;;;22.40;13.37;;;6.00;60.00;;;4.86;50.84;98603.41;5013332;28;20917;-72
2022/03/21 00:15:09;;;;;;;22.33;13.67;;;6.00;59.90;;;4.88;50.70;98596.16;5013144;28;20401;-72
2022/03/21 00:17:36;;;;;;;28.10;15.07;;;6.00;59.90;;;4.81;51.08;98611.81;5012828;28;20424;-72
2022/03/21 00:20:02;;;;;;;22.65;13.95;;;5.90;60.20;;;4.66;51.38;98611.84;5012943;28;20427;-72
2022/03/21 00:22:28;;;;;;;28.63;14.60;;;5.80;60.50;;;4.65;51.90;98617.28;5012805;28;20405;-72
2022/03/21 00:24:56;;;;;;;26.97;14.20;;;5.70;61.30;;;4.58;52.56;98613.78;5011918;28;20404;-72
2022/03/21 00:27:22;;;;;;;23.63;13.98;;;5.60;62.10;;;4.45;52.50;98624.06;5013043;28;20397;-72
2022/03/21 00:29:48;;;;;;;23.17;14.43;;;5.60;61.90;;;4.36;52.57;98619.94;5012864;28;20428;-72
2022/03/21 00:32:14;;;;;;;22.92;13.93;;;5.60;62.10;;;4.46;52.21;98617.81;5012684;28;20491;-72
2022/03/21 00:34:40;;;;;;;23.23;13.93;;;5.60;62.00;;;4.44;52.04;98610.13;5012979;28;20412;-72
2022/03/21 00:37:07;;;;;;;22.55;13.70;;;5.60;61.70;;;4.44;51.81;98615.38;5012857;28;20404;-72
2022/03/21 00:39:33;;;;;;;23.17;13.57;;;5.60;61.50;;;4.46;51.96;98617.81;5011404;28;20409;-72
2022/03/21 00:42:01;;;;;;;25.60;14.18;;;5.60;61.60;;;4.50;51.99;98621.72;5012472;28;20751;-72
2022/03/21 00:44:27;;;;;;;23.38;14.02;;;5.60;61.70;;;4.44;51.74;98619.81;5012794;28;20437;-71
2022/03/21 00:46:53;;;;;;;24.60;14.17;;;5.60;61.40;;;4.43;52.28;98616.41;5012756;28;20459;-72
2022/03/21 00:49:19;;;;;;;21.65;13.93;;;5.50;61.80;;;4.38;52.12;98626.59;5012573;28;20436;-72
2022/03/21 00:51:45;;;;;;;24.50;14.10;;;5.50;61.80;;;4.39;52.17;98622.16;5011004;28;20471;-72
2022/03/21 00:54:11;;;;;;;23.80;14.02;;;5.50;61.80;;;4.31;52.31;98625.69;5011275;28;20409;-72
2022/03/21 00:56:37;;;;;;;28.90;14.85;;;5.50;62.40;;;4.32;52.38;98611.59;5012479;28;20409;-72
2022/03/21 00:59:04;;;;;;;23.02;14.32;;;5.40;62.40;;;4.27;52.44;98609.53;5012266;28;20594;-72
2022/03/21 01:01:30;;;;;;;29.05;14.80;;;5.40;62.50;;;4.24;53.02;98606.44;5011969;28;20470;-72
2022/03/21 01:03:56;;;;;;;22.38;13.63;;;5.40;62.90;;;4.25;52.84;98611.50;5012318;28;20401;-72
2022/03/21 01:06:22;;;;;;;22.67;13.38;;;5.40;62.90;;;4.20;53.05;98606.00;5012303;28;20908;-72
2022/03/21 01:08:49;;;;;;;27.85;14.35;;;5.30;63.30;;;4.17;53.26;98605.53;5012265;28;20400;-72
2022/03/21 01:11:14;;;;;;;22.50;13.75;;;5.20;63.50;;;4.04;53.38;98605.34;5014832;22;20490;-80
2022/03/21 01:13:42;;;;;;;23.55;14.25;;;5.20;63.50;;;4.04;53.16;98603.56;4992989;28;20414;-80
2022/03/21 01:16:09;;;;;;;29.25;14.77;;;5.20;63.60;;;4.01;53.74;98603.09;4993009;28;20476;-80
2022/03/21 01:18:36;;;;;;;22.02;13.68;;;5.20;63.90;;;3.91;53.60;98598.09;4992601;28;20501;-80
2022/03/21 01:21:02;;;;;;;19.45;12.10;;;5.20;63.80;;;3.83;53.70;98606.84;4992171;28;20410;-80
2022/03/21 01:23:28;;;;;;;18.60;10.95;;;5.10;63.80;;;3.76;54.12;98611.16;4992631;28;20406;-80
2022/03/21 01:25:54;;;;;;;25.30;13.82;;;5.10;64.20;;;3.89;54.43;98610.59;4992544;28;20903;-80
2022/03/21 01:28:20;;;;;;;25.63;14.03;;;5.00;64.80;;;3.95;54.97;98617.72;4992054;28;20497;-80
2022/03/21 01:30:45;;;;;;;24.15;14.50;;;5.10;65.50;;;3.83;55.18;98619.16;4991949;28;20469;-80
2022/03/21 01:33:13;;;;;;;26.03;14.30;;;5.00;65.80;;;3.81;55.91;98619.34;4992534;28;20412;-80
2022/03/21 01:35:39;;;;;;;25.83;14.20;;;4.90;66.70;;;3.79;55.57;98623.91;5007442;28;20919;-80
2022/03/21 01:38:04;;;;;;;25.17;15.13;;;4.90;66.80;;;3.76;55.76;98628.72;4992398;28;20419;-80
2022/03/21 01:40:30;;;;;;;23.20;13.80;;;4.90;67.00;;;3.65;56.00;98632.56;4991959;28;20569;-79
2022/03/21 01:42:56;;;;;;;21.73;13.27;;;4.80;67.30;;;3.66;55.72;98625.53;4992360;28;20410;-79
2022/03/21 01:45:26;;;;;;;23.15;14.80;;;4.80;66.80;;;3.71;55.51;98628.41;4992456;28;20411;-80
2022/03/21 01:47:52;;;;;;;26.77;14.52;;;4.80;66.90;;;3.68;56.23;98634.03;4992320;28;20407;-79
2022/03/21 01:50:20;;;;;;;21.45;12.60;;;4.80;67.70;;;3.44;56.18;98637.63;4991869;28;20464;-78
2022/03/21 01:52:46;;;;;;;21.13;12.23;;;4.70;67.40;;;3.39;56.22;98639.94;4992280;28;20402;-79
2022/03/21 01:58:00;;;;;;;22.58;13.10;;;4.60;67.60;;;3.45;56.75;98634.03;4992082;28;20429;-80
2022/03/21 02:00:27;;;;;;;26.15;14.48;;;4.60;67.80;;;3.49;56.45;98645.78;4991559;28;20398;-79
2022/03/21 02:02:53;;;;;;;24.20;13.55;;;4.60;68.30;;;3.37;56.50;98634.91;4992105;28;20422;-79
2022/03/21 02:05:20;;;;;;;22.55;13.07;;;4.60;68.40;;;3.23;56.82;98640.06;4991961;28;20920;-79
2022/03/21 02:07:46;;;;;;;24.38;14.18;;;4.50;68.20;;;3.35;56.78;98638.69;4991921;28;20414;-80
2022/03/21 02:10:12;;;;;;;26.73;14.60;;;4.50;68.70;;;3.38;56.68;98641.75;4991417;28;20410;-80
2022/03/21 02:12:39;;;;;;;19.80;12.67;;;4.50;68.70;;;3.19;56.89;98642.22;5006923;28;20435;-79
2022/03/21 02:15:06;;;;;;;24.85;14.68;;;4.50;68.60;;;3.29;57.03;98640.19;4992050;28;20489;-79
2022/03/21 02:17:36;;;;;;;23.75;13.90;;;4.50;69.90;;;3.20;57.26;98636.00;4991615;28;20503;-80
2022/03/21 02:20:03;;;;;;;21.25;12.93;;;4.50;68.90;;;3.21;57.30;98639.44;4991628;28;20398;-79
2022/03/21 02:22:38;;;;;;;27.57;14.33;;;4.50;69.10;;;3.26;57.09;98643.16;4991495;28;20415;-79
2022/03/21 02:25:27;;;;;;;24.08;13.82;;;4.50;69.10;;;3.31;56.90;98638.19;4991631;28;20402;-79
2022/03/21 02:27:57;;;;;;;25.98;14.65;;;4.50;69.00;;;3.36;58.15;98640.31;4991555;28;20399;-79
2022/03/21 02:30:26;;;;;;;21.13;13.17;;;4.40;70.50;;;3.26;58.11;98644.94;4990988;28;20964;-79
2022/03/21 02:32:53;;;;;;;22.77;14.35;;;4.50;70.40;;;3.24;57.82;98642.50;4991419;28;20399;-79
2022/03/21 02:35:21;;;;;;;25.00;13.93;;;4.50;70.20;;;3.28;57.98;98642.97;4991560;28;20461;-79
2022/03/21 02:37:49;;;;;;;24.13;14.80;;;4.50;70.40;;;3.39;57.46;98646.00;4991447;28;20428;-80
2022/03/21 02:40:16;;;;;;;23.45;14.20;;;4.50;70.20;;;3.41;57.32;98638.78;4990912;28;20413;-79
2022/03/21 02:42:42;;;;;;;25.42;15.18;;;4.60;70.00;;;3.42;57.79;98643.03;4991668;28;20395;-79
2022/03/21 02:45:09;;;;;;;25.02;13.88;;;4.50;70.30;;;3.45;57.06;98647.13;4991575;28;20457;-79
2022/03/21 02:47:35;;;;;;;22.17;12.18;;;4.60;69.90;;;3.35;57.45;98649.97;4991414;28;20406;-79
2022/03/21 02:50:03;;;;;;;18.75;12.20;;;4.60;69.70;;;3.36;57.36;98653.41;4991165;28;20964;-80
2022/03/21 02:52:30;;;;;;;18.42;11.90;;;4.60;69.90;;;3.41;57.41;98645.81;4991156;28;20410;-80
2022/03/21 02:54:56;;;;;;;22.93;12.70;;;4.70;69.80;;;3.49;57.22;98653.63;4991500;28;20420;-80
2022/03/21 02:57:24;;;;;;;23.15;14.13;;;4.70;69.70;;;3.62;57.40;98639.94;4991598;28;20461;-80
2022/03/21 02:59:50;;;;;;;22.58;14.02;;;4.70;70.00;;;3.63;57.25;98644.19;4991352;28;20402;-79
2022/03/21 03:02:16;;;;;;;21.65;12.40;;;4.70;69.90;;;3.49;57.19;98643.16;4991031;28;20918;-80
2022/03/21 03:04:42;;;;;;;19.35;11.75;;;4.70;69.70;;;3.45;57.39;98644.50;5006543;28;20978;-79
2022/03/21 03:07:08;;;;;;;19.93;12.07;;;4.70;69.70;;;3.48;57.71;98644.94;4991351;28;20531;-79
2022/03/21 03:09:34;;;;;;;25.55;13.10;;;4.70;70.00;;;3.54;57.51;98648.66;4991036;28;20430;-79
2022/03/21 03:12:00;;;;;;;19.38;12.45;;;4.70;70.10;;;3.44;57.43;98648.91;4990408;28;20456;-78
2022/03/21 03:14:27;;;;;;;20.20;12.02;;;4.70;69.90;;;3.38;57.71;98657.44;4991056;28;20434;-79
2022/03/21 03:16:53;;;;;;;23.90;14.10;;;4.70;70.00;;;3.41;57.86;98654.50;4991081;28;20407;-79
2022/03/21 03:19:19;;;;;;;24.10;14.93;;;4.60;70.50;;;3.34;57.88;98660.59;4990940;28;20431;-79
2022/03/21 03:21:48;;;;;;;26.13;14.77;;;4.50;70.50;;;3.36;57.55;98654.22;4990772;28;20406;-79
2022/03/21 03:24:18;;;;;;;21.97;13.73;;;4.50;70.60;;;3.30;58.16;98656.72;4990962;28;20975;-79
2022/03/21 03:26:44;;;;;;;19.50;12.98;;;4.40;71.00;;;3.13;58.12;98652.56;4991119;28;20887;-79
2022/03/21 03:29:10;;;;;;;23.67;13.75;;;4.40;71.00;;;3.13;58.43;98665.63;4990872;28;20418;-79
2022/03/21 03:31:38;;;;;;;21.08;12.85;;;4.40;71.10;;;3.03;58.36;98671.91;4990601;28;20450;-79
2022/03/21 03:34:05;;;;;;;24.88;14.07;;;4.30;71.10;;;2.98;58.91;98666.38;4991097;28;20741;-79
2022/03/21 03:36:31;;;;;;;22.85;14.13;;;4.10;71.90;;;2.90;58.74;98661.19;4990890;28;20410;-79
2022/03/21 03:38:57;;;;;;;22.67;14.77;;;4.10;71.70;;;2.81;58.88;98667.41;4990827;28;20422;-79
2022/03/21 03:41:24;;;;;;;21.33;12.23;;;4.00;72.10;;;2.66;59.19;98661.28;4990649;28;20476;-80
2022/03/21 03:43:50;;;;;;;22.63;14.07;;;4.00;72.10;;;2.78;59.15;98673.00;4990934;28;21002;-79
2022/03/21 03:46:17;;;;;;;25.38;14.48;;;4.00;72.60;;;2.78;59.29;98667.78;5006125;28;20414;-80
2022/03/21 03:48:44;;;;;;;24.05;14.25;;;4.00;72.70;;;2.80;58.91;98659.75;4990813;28;20403;-80
2022/03/21 03:51:10;;;;;;;23.80;13.85;;;4.00;72.50;;;2.80;58.38;98665.78;4991514;28;20828;-80
2022/03/21 03:53:36;;;;;;;23.60;13.87;;;4.00;72.10;;;2.71;59.03;98664.19;4994376;28;20406;-80
2022/03/21 03:56:02;;;;;;;22.45;13.52;;;3.90;72.50;;;2.70;59.15;98668.63;4994237;28;20443;-80
2022/03/21 03:58:28;;;;;;;19.88;11.57;;;3.90;72.50;;;2.53;59.46;98667.03;4994279;28;20429;-80
2022/03/21 04:00:54;;;;;;;19.57;11.93;;;3.80;72.40;;;2.47;59.67;98665.13;4993686;28;20406;-80
2022/03/21 04:03:54;;;;;;;17.15;11.27;;;3.80;72.70;;;2.43;59.57;98660.38;5009254;28;20418;-79
2022/03/21 04:06:16;;;;;;;20.55;12.43;;;3.70;72.70;;;2.46;59.87;98660.06;5014665;28;20434;-80
2022/03/21 04:08:43;;;;;;;20.77;13.02;;;3.70;73.10;;;2.47;59.32;98659.06;5012236;28;20768;-79
2022/03/21 04:11:09;;;;;;;20.92;13.55;;;3.70;72.80;;;2.54;59.40;98657.41;4993894;28;20494;-80
2022/03/21 04:13:35;;;;;;;24.33;13.82;;;3.70;73.10;;;2.50;59.46;98661.31;5017532;28;20407;-80
2022/03/21 04:16:01;;;;;;;25.05;13.82;;;3.70;72.70;;;2.56;59.05;98660.66;5017760;28;20430;-79
2022/03/21 04:18:27;;;;;;;23.53;13.50;;;3.70;72.50;;;2.56;58.60;98665.88;5000813;28;20900;-79
2022/03/21 04:20:53;;;;;;;20.80;12.48;;;3.70;72.40;;;2.43;58.80;98660.38;4993248;28;20402;-79
2022/03/21 04:23:21;;;;;;;18.73;11.93;;;3.70;72.30;;;2.33;59.33;98674.44;4993749;28;20457;-79
2022/03/21 04:25:48;;;;;;;24.52;12.50;;;3.60;72.40;;;2.41;59.05;98672.78;4993636;28;20411;-80
2022/03/21 04:28:14;;;;;;;24.60;13.30;;;3.60;72.70;;;2.39;59.41;98667.75;4993636;28;20942;-80
2022/03/21 04:30:41;;;;;;;23.23;13.00;;;3.50;72.90;;;2.32;59.28;98675.44;4993122;28;20775;-79
2022/03/21 04:33:10;;;;;;;25.40;13.48;;;3.60;72.70;;;2.38;59.28;98668.72;4993648;28;20405;-80
2022/03/21 04:35:38;;;;;;;20.35;12.70;;;3.50;73.00;;;2.28;59.44;98671.50;4993708;28;20414;-80
2022/03/21 04:38:06;;;;;;;17.58;11.60;;;3.60;73.00;;;2.27;59.71;98671.69;4993245;28;20758;-79
2022/03/21 04:40:34;;;;;;;26.77;14.32;;;3.50;73.10;;;2.31;59.14;98676.41;4992972;28;20407;-80
2022/03/21 04:43:00;;;;;;;21.83;12.15;;;3.50;73.00;;;2.18;59.49;98676.09;4993344;28;20438;-80
2022/03/21 04:45:25;;;;;;;20.30;12.40;;;3.50;73.00;;;2.16;59.73;98683.31;4993427;28;20504;-80
2022/03/21 04:47:51;;;;;;;23.92;12.98;;;3.50;73.10;;;2.23;59.73;98691.28;4993464;28;20395;-80
2022/03/21 04:50:17;;;;;;;18.87;12.33;;;3.50;73.40;;;2.17;59.90;98692.78;4992760;28;20419;-80
2022/03/21 04:52:43;;;;;;;22.73;12.55;;;3.50;73.30;;;2.17;59.53;98700.63;4993121;28;20946;-79
2022/03/21 04:55:09;;;;;;;20.17;12.03;;;3.40;73.10;;;2.14;59.87;98700.13;4993173;28;20407;-78
2022/03/21 04:57:37;;;;;;;21.75;13.13;;;3.40;73.30;;;2.10;60.06;98697.03;4993095;28;20800;-78
2022/03/21 05:00:04;;;;;;;23.52;13.32;;;3.40;73.80;;;2.12;59.95;98702.06;4992907;28;20430;-79
2022/03/21 05:02:30;;;;;;;23.08;13.77;;;3.40;73.90;;;2.09;60.09;98695.41;4991747;28;20469;-79
2022/03/21 05:04:57;;;;;;;23.70;12.73;;;3.30;74.00;;;2.00;59.98;98703.41;4992991;28;20418;-79
2022/03/21 05:07:22;;;;;;;20.52;11.77;;;3.30;74.00;;;1.97;60.08;98707.13;4992961;28;20406;-79
2022/03/21 05:09:48;;;;;;;24.10;13.82;;;3.30;73.80;;;2.04;60.20;98707.28;4992813;28;20399;-79
2022/03/21 05:12:15;;;;;;;24.90;13.57;;;3.20;74.30;;;2.04;59.82;98694.25;4992326;28;20410;-79
2022/03/21 05:14:42;;;;;;;20.90;12.07;;;3.20;74.00;;;1.90;60.35;98703.56;4992745;28;20544;-79
2022/03/21 05:17:10;;;;;;;21.98;13.70;;;3.20;74.00;;;1.95;60.10;98701.28;4992879;28;20768;-80
2022/03/21 05:19:37;;;;;;;22.45;13.00;;;3.20;74.10;;;1.97;60.11;98704.53;5007741;28;20545;-89
2022/03/21 05:22:04;;;;;;;24.50;13.03;;;3.20;74.10;;;1.98;59.98;98711.38;4993257;28;20407;-88
2022/03/21 05:32:45;;;;;;;22.08;12.55;;;3.10;74.10;;;1.82;60.38;98709.59;4993333;28;20484;-89
2022/03/21 05:37:55;;;;;;;21.80;13.07;;;3.10;74.10;;;1.81;60.16;98710.56;4993260;28;20529;-89
2022/03/21 05:45:38;;;;;;;19.00;11.52;;;3.00;74.30;;;1.68;60.52;98728.50;5120325;23;20444;-88
2022/03/21 05:51:47;;;;;;;19.20;11.35;;;3.00;74.40;;;1.74;60.42;98733.06;4970210;28;20443;-86
2022/03/21 05:54:52;;;;;;;;;;;;;;;;;;;;;
2022/03/21 05:57:38;;;;;;;18.65;11.65;;;3.00;74.80;;;1.81;60.77;98731.44;4974715;28;20417;-87
2022/03/21 06:00:52;;;;;;;19.08;11.82;;;3.10;74.80;;;1.86;60.65;98734.41;4987286;28;20925;-86
2022/03/21 06:15:22;;;;;;;;;;;;;;;;;;;;;
2022/03/21 06:26:51;;;;;;;;;;;;;;;;;;;;;
2022/03/21 06:38:41;;;;;;;;;;;;;;;;;;;;;
2022/03/21 06:45:18;;;;;;;18.38;10.90;;;3.90;74.90;;;2.88;60.03;98764.31;4751944;29;20838;-87
2022/03/21 06:47:44;;;;;;;19.77;11.13;;;4.00;74.60;;;2.97;59.87;98764.13;4837111;29;20422;-80
2022/03/21 06:50:11;;;;;;;17.73;10.50;;;4.20;74.40;;;3.07;59.68;98769.16;4936472;28;20797;-79
2022/03/21 06:52:39;;;;;;;19.60;11.48;;;4.20;74.10;;;3.16;59.55;98768.13;4972123;28;20408;-79
2022/03/21 06:55:07;;;;;;;16.35;10.65;;;4.30;74.10;;;3.25;59.32;98763.69;4972175;28;20427;-85
2022/03/21 06:57:33;;;;;;;17.05;11.05;;;4.40;73.80;;;3.32;59.18;98764.63;4972102;28;20498;-85
2022/03/21 07:00:00;;;;;;;17.13;10.52;;;4.50;73.60;;;3.41;58.96;98767.03;4971631;28;20415;-86
2022/03/21 07:02:28;;;;;;;15.48;10.13;;;4.60;73.50;;;3.50;58.88;98759.97;4970951;28;20420;-86
2022/03/21 07:04:55;;;;;;;15.93;10.40;;;4.60;73.30;;;3.61;58.83;98770.03;4972855;28;20404;-85
2022/03/21 07:07:21;;;;;;;18.30;10.88;;;4.70;73.20;;;3.70;59.06;98770.78;4987572;28;20913;-86
2022/03/21 07:09:47;;;;;;;19.33;11.48;;;4.80;73.30;;;3.79;58.66;98775.00;4987416;28;20781;-85
2022/03/21 07:12:13;;;;;;;19.35;11.75;;;4.90;73.00;;;3.89;58.38;98783.47;4970750;28;20451;-85
2022/03/21 07:14:39;;;;;;;19.65;12.10;;;5.00;72.80;;;3.98;58.27;98777.19;4987083;28;20420;-86
2022/03/21 07:17:05;;;;;;;17.38;11.57;;;5.10;72.60;;;4.08;58.34;98779.53;4970949;28;20412;-86
2022/03/21 07:19:32;;;;;;;18.23;12.20;;;5.20;72.50;;;4.18;57.94;98778.31;4972296;28;20941;-86
2022/03/21 07:22:00;;;;;;;21.57;12.07;;;5.30;72.30;;;4.28;57.79;98778.09;4972080;28;20404;-85
2022/03/21 07:24:26;;;;;;;19.00;11.68;;;5.40;72.00;;;4.39;57.41;98775.03;4972834;28;20424;-85
2022/03/21 07:26:52;;;;;;;21.63;12.63;;;5.50;71.50;;;4.49;57.10;98780.03;4974691;28;20458;-84
2022/03/21 07:29:18;;;;;;;19.35;12.23;;;5.60;71.00;;;4.58;56.89;98782.41;4977946;28;20412;-84
2022/03/21 07:31:43;;;;;;;22.85;13.10;;;5.70;70.90;;;4.67;57.06;98783.94;4976589;28;20403;-85
2022/03/21 07:34:09;;;;;;;22.75;12.60;;;5.70;70.80;;;4.80;56.74;98793.00;4977083;28;20727;-85
2022/03/21 07:36:37;;;;;;;18.58;11.65;;;5.80;70.60;;;4.91;56.53;98787.31;4993143;28;20423;-86
2022/03/21 07:39:04;;;;;;;22.25;13.15;;;5.90;70.30;;;5.04;55.18;98796.16;4985122;28;20416;-85
2022/03/21 07:41:30;;;;;;;20.42;12.02;;;6.10;68.30;;;5.19;54.84;98795.38;5015365;28;20420;-85
2022/03/21 07:43:58;;;;;;;19.47;11.83;;;6.20;68.00;;;5.36;53.79;98800.22;4985842;28;20410;-85
2022/03/21 07:49:08;;;;;;;17.95;10.88;;;6.50;66.30;;;5.61;53.48;98795.50;5000643;28;20463;-85
2022/03/21 07:51:36;;;;;;;17.55;10.88;;;6.60;66.10;;;5.73;53.22;98794.00;5005624;28;20454;-86
2022/03/21 07:54:02;;;;;;;17.23;11.07;;;6.70;65.70;;;5.84;53.06;98797.97;4977644;28;20404;-85
2022/03/21 07:56:28;;;;;;;19.52;10.95;;;6.80;65.50;;;5.94;52.80;98795.88;4976215;28;20404;-84
2022/03/21 07:58:55;;;;;;;21.38;12.60;;;6.90;65.20;;;6.08;50.91;98800.28;4974003;28;20427;-86
2022/03/21 08:01:21;;;;;;;23.00;13.57;;;7.10;62.50;;;6.23;48.73;98802.84;4974843;28;20458;-85
2022/03/21 08:03:47;;;;;;;23.42;13.23;;;7.20;59.60;;;6.38;48.70;98800.97;4973726;28;20416;-85
2022/03/21 08:06:13;;;;;;;20.83;12.30;;;7.40;59.20;;;6.53;49.02;98811.41;4974855;28;20410;-86
2022/03/21 08:08:40;;;;;;;19.60;12.18;;;7.50;59.90;;;6.64;49.13;98800.34;4973869;28;20435;-86
2022/03/21 08:11:06;;;;;;;28.17;15.68;;;7.60;59.90;;;6.75;46.92;98806.91;4974705;28;20580;-86
2022/03/21 08:13:32;;;;;;;25.95;14.55;;;7.70;57.60;;;6.83;46.46;98810.22;4974959;28;20404;-82
2022/03/21 08:15:59;;;;;;;24.08;14.23;;;7.80;57.30;;;6.92;47.26;98813.47;4974690;28;20416;-84
2022/03/21 08:18:25;;;;;;;25.17;13.82;;;7.90;57.50;;;6.98;47.04;98813.56;4973653;28;20782;-85
2022/03/21 08:20:51;;;;;;;20.30;11.32;;;8.00;57.30;;;7.08;47.19;98810.56;4989351;28;20444;-84
2022/03/21 08:23:17;;;;;;;18.38;11.38;;;8.00;57.70;;;7.16;47.36;98810.41;4973362;28;20853;-84
2022/03/21 08:25:45;;;;;;;18.00;11.20;;;8.10;57.90;;;7.24;47.73;98809.44;4972558;28;20878;-84
2022/03/21 08:28:14;;;;;;;16.55;10.75;;;8.20;58.10;;;7.33;47.87;98813.53;4973570;28;20464;-85
2022/03/21 08:30:40;;;;;;;22.42;13.10;;;8.20;58.20;;;7.41;47.10;98805.47;4974490;28;20419;-85
2022/03/21 08:33:09;;;;;;;27.65;12.88;;;8.30;57.50;;;7.49;47.13;98804.50;4974392;28;20415;-85
2022/03/21 08:35:38;;;;;;;21.25;13.18;;;8.40;57.40;;;7.58;46.67;98805.97;4974672;28;20443;-84
2022/03/21 08:38:07;;;;;;;16.63;11.38;;;8.50;57.70;;;7.67;46.79;98805.56;4974122;28;20407;-85
2022/03/21 08:40:33;;;;;;;21.63;12.23;;;8.60;57.20;;;7.75;46.57;98815.94;4973524;28;20446;-85
2022/03/21 08:43:01;;;;;;;18.30;11.10;;;8.70;56.60;;;7.89;46.39;98802.81;4989024;28;20507;-84
2022/03/21 08:45:27;;;;;;;19.23;11.52;;;8.80;56.70;;;7.97;46.20;98805.28;4973989;28;20416;-85
2022/03/21 08:47:53;;;;;;;20.65;11.57;;;8.80;56.30;;;8.05;45.91;98800.59;4973802;28;20443;-84
2022/03/21 08:50:20;;;;;;;19.98;12.10;;;8.90;55.80;;;8.16;45.74;98805.31;4972348;28;20914;-85
2022/03/21 08:52:46;;;;;;;22.83;13.57;;;9.00;55.70;;;8.26;44.97;98799.66;4988918;28;20463;-84
2022/03/21 08:55:13;;;;;;;23.08;13.85;;;9.20;54.90;;;8.37;43.83;98804.34;4988968;28;20467;-85
2022/03/21 08:57:39;;;;;;;21.17;12.85;;;9.30;53.40;;;8.48;44.41;98803.75;4974083;28;20483;-84
2022/03/21 09:00:10;;;;;;;18.05;11.48;;;9.40;54.20;;;8.61;44.58;98795.00;4973646;28;20430;-84
2022/03/21 09:02:36;;;;;;;22.03;13.40;;;9.50;54.30;;;8.69;44.26;98800.09;4973940;28;20413;-85
2022/03/21 09:05:07;;;;;;;27.77;14.33;;;9.50;54.10;;;8.80;43.32;98794.16;4973739;28;20415;-85
2022/03/21 09:07:32;;;;;;;17.70;11.77;;;9.70;52.70;;;8.96;43.25;98797.41;4974173;28;20487;-84
2022/03/21 09:09:58;;;;;;;20.30;11.23;;;9.80;53.00;;;9.09;43.49;98797.41;4973733;28;20494;-85
2022/03/21 09:12:24;;;;;;;19.58;12.25;;;9.90;53.20;;;9.17;43.83;98787.38;4973469;28;20539;-85
2022/03/21 09:14:50;;;;;;;21.52;11.60;;;10.00;53.30;;;9.32;43.79;98784.53;4973241;28;20407;-84
2022/03/21 09:17:18;;;;;;;17.75;11.50;;;10.10;53.40;;;9.46;43.89;98791.38;4973433;28;20400;-85
2022/03/21 09:19:44;;;;;;;17.70;11.98;;;10.20;53.60;;;9.59;44.26;98795.81;4973484;28;20777;-85
2022/03/21 09:22:10;;;;;;;21.92;13.48;;;10.40;54.10;;;9.74;44.32;98788.41;4971581;28;20981;-85
2022/03/21 09:24:36;;;;;;;18.83;11.07;;;10.50;54.10;;;9.88;44.35;98795.25;4973377;28;20411;-85
2022/03/21 09:27:03;;;;;;;18.80;11.57;;;10.70;54.10;;;9.99;44.42;98785.84;4973245;28;20418;-85
2022/03/21 09:29:28;;;;;;;18.20;11.45;;;10.70;54.20;;;10.06;44.24;98791.91;4973219;28;20439;-85
2022/03/21 09:31:55;;;;;;;17.20;10.80;;;10.80;53.90;;;10.14;44.25;98793.47;4972622;28;20412;-85
2022/03/21 09:34:22;;;;;;;20.55;12.50;;;10.90;54.00;;;10.15;43.96;98793.25;4973322;28;20400;-85
2022/03/21 09:36:48;;;;;;;20.63;13.23;;;10.90;53.60;;;10.20;43.61;98796.13;4971929;28;20507;-85
2022/03/21 09:39:14;;;;;;;20.20;12.77;;;11.00;53.10;;;10.27;43.47;98788.94;4972903;28;20420;-85
2022/03/21 09:41:41;;;;;;;22.17;11.98;;;11.10;53.10;;;10.38;43.32;98792.72;4972508;28;20407;-85
2022/03/21 09:44:09;;;;;;;18.15;12.25;;;11.20;52.90;;;10.52;42.83;98783.66;4971742;28;20770;-83
2022/03/21 09:46:37;;;;;;;19.48;12.25;;;11.30;52.60;;;10.68;42.67;98791.03;4972986;28;20491;-85
2022/03/21 09:49:03;;;;;;;21.20;12.07;;;11.40;52.20;;;10.85;42.48;98786.00;4972398;28;20484;-84
2022/03/21 09:51:31;;;;;;;20.08;11.82;;;11.60;51.80;;;11.03;42.08;98786.03;4972541;28;20981;-84
2022/03/21 09:54:00;;;;;;;21.30;12.75;;;11.80;51.60;;;11.20;41.58;98789.72;4972867;28;20445;-85
2022/03/21 09:56:29;;;;;;;26.40;14.07;;;11.90;51.00;;;11.32;41.19;98784.50;4972950;28;20487;-85
2022/03/21 09:59:01;;;;;;;21.92;13.25;;;12.10;50.20;;;11.51;41.15;98786.09;4972815;28;20420;-85
2022/03/21 10:01:29;;;;;;;19.65;12.52;;;12.20;50.30;;;11.68;40.32;98788.16;4987221;28;20451;-84
2022/03/21 10:03:55;;;;;;;25.60;14.17;;;12.40;49.60;;;11.83;40.04;98794.72;4972825;28;20834;-83
2022/03/21 10:06:32;;;;;;;18.70;11.60;;;12.50;49.20;;;12.05;40.40;98779.09;4987591;28;20838;-84
2022/03/21 10:09:08;;;;;;;25.02;15.30;;;12.70;49.30;;;12.45;39.89;98784.63;4972564;28;20400;-84
2022/03/21 10:11:34;;;;;;;18.95;13.00;;;13.00;49.30;;;12.98;39.32;98781.91;4987027;28;20408;-84
2022/03/21 10:14:23;;;;;;;21.10;12.48;;;13.60;48.70;;;13.59;38.08;98777.09;4972515;28;20400;-84
2022/03/21 10:16:51;;;;;;;24.63;13.50;;;14.20;47.40;;;14.20;36.99;98771.84;4972404;28;20912;-84
2022/03/21 10:19:17;;;;;;;20.52;12.30;;;14.90;45.80;;;14.81;36.05;98780.81;4972346;28;20481;-84
2022/03/21 10:22:01;;;;;;;19.00;11.55;;;15.60;44.30;;;15.37;35.41;98778.94;4970893;28;20424;-84
2022/03/21 10:24:33;;;;;;;15.45;10.95;;;16.20;43.50;;;15.88;34.66;98772.34;4972433;28;20491;-83
2022/03/21 10:26:58;;;;;;;18.27;11.50;;;16.60;42.50;;;16.51;33.67;98776.16;4972418;28;20418;-84
2022/03/21 10:29:24;;;;;;;16.17;11.10;;;17.20;41.40;;;17.08;32.75;98779.00;4972272;28;20412;-84
2022/03/21 10:31:52;;;;;;;19.88;12.98;;;17.80;40.50;;;17.41;31.52;98778.66;4986824;28;20420;-86
2022/03/21 10:34:20;;;;;;;19.40;12.00;;;18.20;38.80;;;17.56;31.22;98769.06;4972332;28;20396;-84
2022/03/21 10:37:03;;;;;;;17.77;11.80;;;18.40;38.20;;;17.51;30.97;98777.09;4972901;28;20411;-85
2022/03/21 10:39:32;;;;;;;17.85;12.38;;;18.30;37.80;;;17.65;30.89;98770.19;4971013;28;20419;-85
2022/03/21 10:42:00;;;;;;;23.70;13.55;;;18.40;37.70;;;17.73;28.76;98767.81;4971990;28;20499;-84
2022/03/21 10:44:27;;;;;;;19.42;12.45;;;18.40;34.80;;;18.13;29.33;98767.09;4972641;28;20413;-85
2022/03/21 10:46:54;;;;;;;17.40;11.23;;;18.80;35.80;;;18.76;29.45;98766.88;4972543;28;20483;-85
2022/03/21 10:49:29;;;;;;;16.20;11.10;;;19.40;36.00;;;19.65;28.92;98772.28;4972357;28;20405;-85
2022/03/21 10:51:56;;;;;;;15.02;10.70;;;20.30;35.60;;;20.61;28.11;98772.75;4971638;28;20889;-85
2022/03/21 10:54:43;;;;;;;15.73;11.35;;;21.30;34.60;;;21.60;26.90;98772.00;4972146;28;20407;-84
2022/03/21 10:57:31;;;;;;;14.85;11.75;;;22.30;33.10;;;22.19;25.27;98762.59;4971303;28;20771;-84
2022/03/21 11:00:15;;;;;;;17.80;13.07;;;22.90;30.40;;;22.58;24.69;98761.44;4986883;28;20420;-84
2022/03/21 11:02:54;;;;;;;16.03;13.13;;;23.30;30.10;;;22.68;24.47;98764.78;4976660;28;20444;-84
2022/03/21 11:05:22;;;;;;;15.07;11.45;;;23.40;29.90;;;22.53;24.39;98759.66;4995850;28;20428;-83
2022/03/21 11:07:49;;;;;;;13.98;11.43;;;23.30;29.70;;;22.24;24.64;98764.44;4992395;28;20408;-84
2022/03/21 11:10:18;;;;;;;17.45;12.13;;;22.90;29.90;;;21.89;25.10;98757.63;4979655;28;20412;-85
2022/03/21 11:12:47;;;;;;;17.33;12.27;;;22.50;30.20;;;21.57;25.09;98759.13;5000830;28;20406;-84
2022/03/21 11:15:14;;;;;;;16.40;12.30;;;22.20;30.60;;;21.33;25.48;98754.84;4998462;28;20403;-84
2022/03/21 11:17:42;;;;;;;16.48;11.95;;;22.00;31.00;;;21.30;25.78;98748.13;4976468;28;20411;-84
2022/03/21 11:20:11;;;;;;;15.40;11.82;;;21.90;31.40;;;21.32;25.61;98750.53;4974397;28;20416;-85
2022/03/21 11:22:39;;;;;;;15.73;11.50;;;21.90;31.30;;;21.33;25.82;98747.56;4975654;28;20444;-85
2022/03/21 11:25:07;;;;;;;18.63;13.63;;;21.90;31.30;;;21.24;25.54;98744.69;4975565;28;20404;-85